AirNav   TITAN Aviation Fuels
 
 567 users online  

67NJ Mount Pleasant Landing Strip Airport
Hainesburg, New Jersey, USA

GOING TO HAINESBURG?


FAA INFORMATION EFFECTIVE 26 JANUARY 2023

Location

FAA Identifier: 67NJ
Lat/Long: 40-58-11.3470N 075-04-00.6330W
40-58.189117N 075-04.010550W
40.9698186,-75.0668425
(estimated)
Elevation: 800 ft. / 244 m (estimated)
Variation: 12W (1980)
From city: 1 mile S of HAINESBURG, NJ
Time zone: UTC -5 (UTC -4 during Daylight Saving Time)
Zip code: 07832

Airport Operations

Airport use: Private use. Permission required prior to landing
Activation date: 11/1986
Control tower: no
ARTCC: NEW YORK CENTER
FSS: MILLVILLE FLIGHT SERVICE STATION
Attendance: UNATNDD
Wind indicator: yes
Segmented circle: no

Airport Communications

WX ASOS at 12N (15 nm E): PHONE 917-786-7221
WX ASOS at MPO (17 nm NW): 120.275 (570-839-1584)

Nearby radio navigation aids

VOR radial/distance  VOR name  Freq  Var
STWr271/9.1STILLWATER VOR/DME109.6011W
BWZr324/15.1BROADWAY VOR/DME114.2011W
FJCr060/22.9ALLENTOWN VORTAC117.5010W
SAXr267/24.6SPARTA VORTAC115.7011W
SBJr338/27.5SOLBERG VOR/DME112.9010W
LVZr133/33.5WILKES-BARRE VORTAC111.6010W
HUOr230/34.0HUGUENOT VOR/DME116.1011W
ETXr059/36.5EAST TEXAS VOR/DME110.2009W

 
NDB name  Hdg/Dist  Freq  Var  ID
CHATHAM308/32.025413WCAT -.-. .- -

Airport Services

Runway Information

Runway 6/24

Dimensions: 2500 x 50 ft. / 762 x 15 m
Surface: turf
RUNWAY 6  RUNWAY 24
Traffic pattern: leftleft

Airport Ownership and Management from official FAA records

Ownership: Privately-owned
Owner: RICHARD R. BECKER
BOX 111
COLUMBIA, NJ 07832
Phone 908-496-4976
Manager: RICHARD R. BECKER
BOX 111
COLUMBIA, NJ 07832
Phone 908-496-4976

Airport Operational Statistics

Aircraft based on the field: 2
Single engine airplanes: 2
    

Additional Remarks

FOR CD CTC ALLENTOWN APCH AT 800-728-6322.

Instrument Procedures

There are no published instrument procedures at 67NJ.

Some nearby airports with instrument procedures:

1N7 - Blairstown Airport (3 nm E)
N53 - Stroudsburg-Pocono Airport (6 nm NW)
12N - Aeroflex/Andover Airport (15 nm E)
N43 - Braden Airpark (16 nm SW)
KMPO - Pocono Mountains Regional Airport (17 nm NW)
 
Loc | Ops | Rwys | IFR | FBO | Links
Com | Nav | Svcs | Stats | Notes
Area around 67NJ (Mount Pleasant Landing Strip Airport)
 
Road maps at: MapQuest Bing Google
 
Aerial photo
No photo
 
Sectional chart

 
Airport distance calculator
Flying to Mount Pleasant Landing Strip Airport? Find the distance to fly.

From to 67NJ

Sunrise and sunset
Times for 29-Jan-2023
 Local
(UTC-5)
 Zulu
(UTC)
Morning civil twilight06:4511:45
Sunrise07:1512:15
Sunset17:1222:12
Evening civil twilight17:4222:42

Current date and time
Zulu (UTC)  29-Jan-2023 09:14:27
Local (UTC-5)  29-Jan-2023 04:14:27
 
METAR
K12N 
15nm E 
290854Z AUTO 00000KT 00/M02 A3027 RMK AO1 SLP257 T00001022 58004
KMPO 
17nm NW 
290853Z AUTO 14005KT 10SM BKN070 02/M03 A3020 RMK AO2 SLP243 T00171033 58008
KFWN 
24nm NE 
290853Z AUTO 00000KT 10SM OVC085 M01/M02 A3027 RMK AO2 SLP253 T10111022 58003
KABE 
26nm SW 
290851Z 08004KT 10SM CLR M01/M04 A3026 RMK AO2 SLP251 T10111039 58006
KSMQ 
28nm SE 
ASOS 120.60 908-722-2139
290853Z AUTO 00000KT 10SM CLR M02/M03 A3028 RMK AO2 SLP256 T10221033 58004
TAF
KABE 
26nm SW 
290520Z 2906/3006 VRB02KT P6SM SCT250 FM291600 19007KT P6SM OVC120 FM300000 23006KT P6SM BKN030
NOTAMs
Click for the latest NOTAMs
NOTAMs are issued by the DoD/FAA and will open in a separate window not controlled by AirNav.

 

 
 

Would you like to see your business listed on this page?

 If your business provides an interesting product or service to pilots, flight crews, aircraft, or users of the Mount Pleasant Landing Strip Airport, you should consider listing it here.  To start the listing process, click on the button below
 
Add a business
 

Other Pages about Mount Pleasant Landing Strip Airport

Update a link
 
Copyright © AirNav, LLC. All rights reserved. Privacy Policy  Contact